sensor_id;sensor_type;location;lat;lon;timestamp;P1;durP1;ratioP1;P2;durP2;ratioP2
68208;SDS011;55662;47.488;19.074;2022-08-19T00:16:40;11.13;;;7.00;;
68208;SDS011;55662;47.488;19.074;2022-08-19T00:36:44;11.70;;;7.75;;
68208;SDS011;55662;47.488;19.074;2022-08-19T00:56:48;10.95;;;7.72;;
68208;SDS011;55662;47.488;19.074;2022-08-19T01:16:57;13.83;;;8.17;;
68208;SDS011;55662;47.488;19.074;2022-08-19T01:37:06;11.15;;;8.45;;
68208;SDS011;55662;47.488;19.074;2022-08-19T01:57:14;11.93;;;8.60;;
68208;SDS011;55662;47.488;19.074;2022-08-19T02:17:17;12.57;;;8.77;;
68208;SDS011;55662;47.488;19.074;2022-08-19T02:37:21;11.67;;;8.57;;
68208;SDS011;55662;47.488;19.074;2022-08-19T02:57:43;13.80;;;9.77;;
68208;SDS011;55662;47.488;19.074;2022-08-19T03:17:46;12.25;;;9.07;;
68208;SDS011;55662;47.488;19.074;2022-08-19T03:37:50;14.27;;;9.73;;
68208;SDS011;55662;47.488;19.074;2022-08-19T03:57:54;12.93;;;9.20;;
68208;SDS011;55662;47.488;19.074;2022-08-19T04:18:01;11.35;;;8.52;;
68208;SDS011;55662;47.488;19.074;2022-08-19T04:38:05;13.32;;;8.77;;
68208;SDS011;55662;47.488;19.074;2022-08-19T04:58:09;12.03;;;9.17;;
68208;SDS011;55662;47.488;19.074;2022-08-19T05:18:13;12.30;;;8.35;;
68208;SDS011;55662;47.488;19.074;2022-08-19T05:38:35;13.50;;;8.55;;
68208;SDS011;55662;47.488;19.074;2022-08-19T05:58:39;11.87;;;8.70;;
68208;SDS011;55662;47.488;19.074;2022-08-19T06:18:42;12.50;;;8.13;;
68208;SDS011;55662;47.488;19.074;2022-08-19T06:38:47;13.10;;;7.53;;
68208;SDS011;55662;47.488;19.074;2022-08-19T06:58:50;9.65;;;6.72;;
68208;SDS011;55662;47.488;19.074;2022-08-19T07:18:56;10.40;;;6.47;;
68208;SDS011;55662;47.488;19.074;2022-08-19T07:39:00;12.02;;;6.97;;
68208;SDS011;55662;47.488;19.074;2022-08-19T07:59:06;11.70;;;6.12;;
68208;SDS011;55662;47.488;19.074;2022-08-19T08:19:12;10.85;;;7.28;;
68208;SDS011;55662;47.488;19.074;2022-08-19T08:39:28;7.57;;;6.23;;
68208;SDS011;55662;47.488;19.074;2022-08-19T08:59:33;11.73;;;8.15;;
68208;SDS011;55662;47.488;19.074;2022-08-19T09:19:52;8.55;;;7.03;;
68208;SDS011;55662;47.488;19.074;2022-08-19T09:39:59;9.43;;;7.60;;
68208;SDS011;55662;47.488;19.074;2022-08-19T10:00:05;9.67;;;8.30;;
68208;SDS011;55662;47.488;19.074;2022-08-19T10:20:11;11.15;;;7.12;;
68208;SDS011;55662;47.488;19.074;2022-08-19T10:40:15;8.80;;;7.97;;
68208;SDS011;55662;47.488;19.074;2022-08-19T11:00:21;9.40;;;7.20;;
68208;SDS011;55662;47.488;19.074;2022-08-19T11:20:26;14.87;;;11.77;;
68208;SDS011;55662;47.488;19.074;2022-08-19T11:40:29;9.40;;;8.17;;
68208;SDS011;55662;47.488;19.074;2022-08-19T12:00:33;11.20;;;8.05;;
68208;SDS011;55662;47.488;19.074;2022-08-19T12:20:40;24.23;;;21.15;;
68208;SDS011;55662;47.488;19.074;2022-08-19T12:40:48;23.52;;;13.68;;
68208;SDS011;55662;47.488;19.074;2022-08-19T13:00:52;22.60;;;19.07;;
68208;SDS011;55662;47.488;19.074;2022-08-19T13:20:55;27.37;;;15.32;;
68208;SDS011;55662;47.488;19.074;2022-08-19T13:41:03;13.45;;;8.35;;
68208;SDS011;55662;47.488;19.074;2022-08-19T14:01:18;13.70;;;7.95;;
68208;SDS011;55662;47.488;19.074;2022-08-19T14:21:26;19.30;;;5.90;;
68208;SDS011;55662;47.488;19.074;2022-08-19T14:41:29;12.73;;;5.43;;
68208;SDS011;55662;47.488;19.074;2022-08-19T15:01:33;13.05;;;4.72;;
68208;SDS011;55662;47.488;19.074;2022-08-19T15:21:37;8.52;;;3.45;;
68208;SDS011;55662;47.488;19.074;2022-08-19T15:41:41;9.65;;;4.03;;
68208;SDS011;55662;47.488;19.074;2022-08-19T16:01:47;11.40;;;3.10;;
68208;SDS011;55662;47.488;19.074;2022-08-19T16:22:12;10.70;;;3.17;;
68208;SDS011;55662;47.488;19.074;2022-08-19T16:42:15;10.02;;;3.40;;
68208;SDS011;55662;47.488;19.074;2022-08-19T17:02:20;13.60;;;3.50;;
68208;SDS011;55662;47.488;19.074;2022-08-19T17:22:27;13.97;;;7.90;;
68208;SDS011;55662;47.488;19.074;2022-08-19T17:42:31;7.77;;;3.43;;
68208;SDS011;55662;47.488;19.074;2022-08-19T18:02:42;11.77;;;3.17;;
68208;SDS011;55662;47.488;19.074;2022-08-19T18:22:47;22.87;;;3.22;;
68208;SDS011;55662;47.488;19.074;2022-08-19T18:42:51;14.37;;;3.97;;
68208;SDS011;55662;47.488;19.074;2022-08-19T19:03:25;10.07;;;4.33;;
68208;SDS011;55662;47.488;19.074;2022-08-19T19:23:32;10.63;;;3.30;;
68208;SDS011;55662;47.488;19.074;2022-08-19T19:43:35;16.80;;;5.60;;
68208;SDS011;55662;47.488;19.074;2022-08-19T20:03:43;13.03;;;5.00;;
68208;SDS011;55662;47.488;19.074;2022-08-19T20:23:47;15.60;;;4.97;;
68208;SDS011;55662;47.488;19.074;2022-08-19T20:44:11;17.27;;;7.37;;
68208;SDS011;55662;47.488;19.074;2022-08-19T21:04:17;15.50;;;6.60;;
68208;SDS011;55662;47.488;19.074;2022-08-19T21:24:22;11.33;;;5.90;;
68208;SDS011;55662;47.488;19.074;2022-08-19T21:44:33;11.65;;;6.50;;
68208;SDS011;55662;47.488;19.074;2022-08-19T22:04:40;13.32;;;7.05;;
68208;SDS011;55662;47.488;19.074;2022-08-19T22:24:43;14.57;;;6.75;;
68208;SDS011;55662;47.488;19.074;2022-08-19T22:44:47;14.40;;;6.00;;
68208;SDS011;55662;47.488;19.074;2022-08-19T23:04:51;12.77;;;6.10;;
68208;SDS011;55662;47.488;19.074;2022-08-19T23:24:59;9.70;;;5.55;;
68208;SDS011;55662;47.488;19.074;2022-08-19T23:45:04;8.03;;;5.10;;
